Time;durP1;ratioP1;P1;durP2;ratioP2;P2;SDS_P1;SDS_P2;PMS_P1;PMS_P2;Temp;Humidity;BMP_temperature;BMP_pressure;BME280_temperature;BME280_humidity;BME280_pressure;Samples;Min_cycle;Max_cycle;Signal;HPM_P1;HPM_P2
2021/05/11 00:00:54;;;;;;;13.43;5.45;;;;;;;;;;5023901;28;20060;-68
2021/05/11 00:03:20;;;;;;;13.80;5.22;;;;;;;;;;5026842;28;20037;-68
2021/05/11 00:05:47;;;;;;;14.90;5.55;;;;;;;;;;5025908;28;20101;-68
2021/05/11 00:08:13;;;;;;;16.50;5.97;;;;;;;;;;5025489;28;20539;-68
2021/05/11 00:10:40;;;;;;;10.57;5.00;;;;;;;;;;5021473;28;20041;-68
2021/05/11 00:13:07;;;;;;;13.52;5.32;;;;;;;;;;5020412;28;20991;-68
2021/05/11 00:15:33;;;;;;;12.98;4.80;;;;;;;;;;5016896;28;20057;-68
2021/05/11 00:18:00;;;;;;;12.95;4.72;;;;;;;;;;5011608;28;20219;-68
2021/05/11 00:20:26;;;;;;;12.45;4.88;;;;;;;;;;5017954;28;20492;-68
2021/05/11 00:22:52;;;;;;;11.85;5.18;;;;;;;;;;5015165;28;20076;-68
2021/05/11 00:25:19;;;;;;;15.48;5.90;;;;;;;;;;4997299;28;20052;-68
2021/05/11 00:27:46;;;;;;;13.45;5.47;;;;;;;;;;5026218;28;20041;-68
2021/05/11 00:30:13;;;;;;;14.35;5.15;;;;;;;;;;5024776;28;20125;-68
2021/05/11 00:32:39;;;;;;;16.83;4.95;;;;;;;;;;5023393;28;20644;-68
2021/05/11 00:35:08;;;;;;;14.30;4.75;;;;;;;;;;5025367;28;20464;-68
2021/05/11 00:37:36;;;;;;;9.93;4.68;;;;;;;;;;5024333;28;20046;-68
2021/05/11 00:40:03;;;;;;;16.30;5.25;;;;;;;;;;5022119;28;20111;-68
2021/05/11 00:42:29;;;;;;;20.88;5.97;;;;;;;;;;5008092;28;20514;-68
2021/05/11 00:44:56;;;;;;;11.48;4.90;;;;;;;;;;5025367;28;20063;-68
2021/05/11 00:47:22;;;;;;;10.73;4.45;;;;;;;;;;5024549;28;20151;-68
2021/05/11 00:49:49;;;;;;;11.23;4.70;;;;;;;;;;5026122;28;20454;-68
2021/05/11 00:52:15;;;;;;;11.10;4.70;;;;;;;;;;5015235;28;20141;-68
2021/05/11 00:54:42;;;;;;;13.13;5.05;;;;;;;;;;5022590;28;20045;-68
2021/05/11 00:57:09;;;;;;;7.60;4.22;;;;;;;;;;5024234;28;20075;-68
2021/05/11 00:59:36;;;;;;;9.40;4.65;;;;;;;;;;5025912;28;20186;-68
2021/05/11 01:02:04;;;;;;;11.93;4.47;;;;;;;;;;5023872;28;20045;-68
2021/05/11 01:04:30;;;;;;;15.82;6.13;;;;;;;;;;5023788;28;20050;-68
2021/05/11 01:06:57;;;;;;;13.05;4.38;;;;;;;;;;5025449;28;20053;-68
2021/05/11 01:09:24;;;;;;;8.48;4.70;;;;;;;;;;5024359;28;20045;-68
2021/05/11 01:11:51;;;;;;;9.30;4.53;;;;;;;;;;5008452;28;20159;-68
2021/05/11 01:14:17;;;;;;;9.13;4.63;;;;;;;;;;5005875;28;20049;-68
2021/05/11 01:16:47;;;;;;;14.82;4.72;;;;;;;;;;5021084;28;20042;-68
2021/05/11 01:19:17;;;;;;;10.63;4.57;;;;;;;;;;5028540;28;20446;-68
2021/05/11 01:24:24;;;;;;;9.32;4.47;;;;;;;;;;5022118;28;20484;-68
2021/05/11 01:26:57;;;;;;;11.18;4.95;;;;;;;;;;5024283;28;20144;-68
2021/05/11 01:46:32;;;;;;;11.80;5.60;;;;;;;;;;5025722;28;20124;-68
2021/05/11 01:49:03;;;;;;;12.00;5.25;;;;;;;;;;5022664;28;20113;-68
2021/05/11 02:11:02;;;;;;;13.68;4.80;;;;;;;;;;5015021;28;20041;-68
2021/05/11 02:24:26;;;;;;;13.38;4.68;;;;;;;;;;5021555;28;20064;-68
2021/05/11 02:26:53;;;;;;;14.20;4.32;;;;;;;;;;5025785;28;20484;-68
2021/05/11 02:29:19;;;;;;;11.98;4.10;;;;;;;;;;5022401;28;20045;-68
2021/05/11 02:31:46;;;;;;;16.25;5.05;;;;;;;;;;5024932;28;20127;-68
2021/05/11 02:34:12;;;;;;;13.50;4.47;;;;;;;;;;5023284;28;20054;-68
2021/05/11 02:36:38;;;;;;;11.85;3.92;;;;;;;;;;5022701;28;20055;-68
2021/05/11 02:39:07;;;;;;;16.90;4.70;;;;;;;;;;5023676;28;20493;-68
2021/05/11 02:41:33;;;;;;;12.18;4.38;;;;;;;;;;5022127;28;20072;-68
2021/05/11 02:43:59;;;;;;;13.98;4.53;;;;;;;;;;5022688;28;20041;-68
2021/05/11 02:46:29;;;;;;;18.30;4.57;;;;;;;;;;5024432;28;20108;-68
2021/05/11 02:48:56;;;;;;;14.82;4.80;;;;;;;;;;5027132;28;20036;-68
2021/05/11 02:51:23;;;;;;;12.65;4.63;;;;;;;;;;5023121;28;20060;-67
2021/05/11 02:53:49;;;;;;;15.98;5.25;;;;;;;;;;5026079;28;20068;-68
2021/05/11 02:56:15;;;;;;;15.55;4.53;;;;;;;;;;5026805;28;20168;-68
2021/05/11 02:58:43;;;;;;;12.15;3.95;;;;;;;;;;5028974;28;20092;-68
2021/05/11 03:01:09;;;;;;;13.82;4.03;;;;;;;;;;5027089;28;20061;-68
2021/05/11 03:03:38;;;;;;;12.98;4.40;;;;;;;;;;5027321;28;20504;-68
2021/05/11 03:06:04;;;;;;;16.13;4.53;;;;;;;;;;5028204;28;20120;-68
2021/05/11 03:08:31;;;;;;;16.23;4.05;;;;;;;;;;5027775;28;20389;-68
2021/05/11 03:10:57;;;;;;;10.77;4.18;;;;;;;;;;5003256;28;20131;-68
2021/05/11 03:13:24;;;;;;;14.15;4.72;;;;;;;;;;5024544;28;20041;-68
2021/05/11 03:15:50;;;;;;;16.88;5.15;;;;;;;;;;5025372;28;20404;-68
2021/05/11 03:18:18;;;;;;;15.48;4.85;;;;;;;;;;5027946;28;20049;-68
2021/05/11 03:20:44;;;;;;;18.75;4.20;;;;;;;;;;5025879;28;20519;-68
2021/05/11 03:23:11;;;;;;;15.98;4.13;;;;;;;;;;5006535;28;20120;-68
2021/05/11 03:25:37;;;;;;;13.20;4.80;;;;;;;;;;5028395;28;20045;-68
2021/05/11 03:28:03;;;;;;;16.70;4.05;;;;;;;;;;5024224;28;20037;-68
2021/05/11 03:30:29;;;;;;;12.50;3.83;;;;;;;;;;5026772;28;20037;-68
2021/05/11 03:32:56;;;;;;;13.98;4.13;;;;;;;;;;5026551;28;20040;-68
2021/05/11 03:35:22;;;;;;;9.20;3.35;;;;;;;;;;5026472;28;20513;-68
2021/05/11 03:37:48;;;;;;;13.57;3.83;;;;;;;;;;5027329;28;20045;-68
2021/05/11 03:40:14;;;;;;;12.27;3.92;;;;;;;;;;5009587;28;20075;-68
2021/05/11 03:42:51;;;;;;;14.15;3.95;;;;;;;;;;5026902;28;20045;-68
2021/05/11 03:45:18;;;;;;;14.50;3.85;;;;;;;;;;5027292;28;20112;-68
2021/05/11 03:47:47;;;;;;;13.52;4.72;;;;;;;;;;5027292;28;20096;-68
2021/05/11 03:50:15;;;;;;;8.23;3.38;;;;;;;;;;5019687;28;20373;-68
2021/05/11 03:52:43;;;;;;;13.48;3.58;;;;;;;;;;5024744;28;20089;-68
2021/05/11 03:55:10;;;;;;;11.93;4.28;;;;;;;;;;5018934;28;20033;-68
2021/05/11 03:57:36;;;;;;;12.85;3.40;;;;;;;;;;5025526;28;20373;-68
2021/05/11 04:00:04;;;;;;;17.70;4.55;;;;;;;;;;5025890;28;20107;-68
2021/05/11 04:02:32;;;;;;;16.98;4.03;;;;;;;;;;5024918;28;20495;-68
2021/05/11 04:04:59;;;;;;;12.90;3.67;;;;;;;;;;5026412;28;20041;-68
2021/05/11 04:07:25;;;;;;;10.40;3.63;;;;;;;;;;5026951;28;20050;-68
2021/05/11 04:09:56;;;;;;;13.20;4.20;;;;;;;;;;5022371;28;20045;-68
2021/05/11 04:17:46;;;;;;;15.02;4.28;;;;;;;;;;4996801;28;20913;-68
2021/05/11 04:20:13;;;;;;;14.57;4.18;;;;;;;;;;5002785;28;20115;-68
2021/05/11 04:22:40;;;;;;;13.77;4.55;;;;;;;;;;5023855;28;20049;-68
2021/05/11 04:25:06;;;;;;;12.60;4.05;;;;;;;;;;5022995;28;20049;-68
2021/05/11 04:27:33;;;;;;;10.18;3.40;;;;;;;;;;5011933;28;20372;-68
2021/05/11 04:30:03;;;;;;;20.98;4.32;;;;;;;;;;5026061;28;20103;-68
2021/05/11 04:32:34;;;;;;;12.18;3.50;;;;;;;;;;5025517;28;20145;-68
2021/05/11 04:35:00;;;;;;;11.07;4.25;;;;;;;;;;5009209;28;20386;-68
2021/05/11 04:37:26;;;;;;;16.95;4.53;;;;;;;;;;5025719;28;20609;-68
2021/05/11 04:39:54;;;;;;;9.93;3.80;;;;;;;;;;5022176;28;20049;-68
2021/05/11 04:42:22;;;;;;;10.27;4.15;;;;;;;;;;5022139;28;20053;-68
2021/05/11 04:44:51;;;;;;;12.48;4.00;;;;;;;;;;5023509;28;20117;-68
2021/05/11 04:47:21;;;;;;;12.20;4.30;;;;;;;;;;5026702;28;20123;-68
2021/05/11 04:49:47;;;;;;;13.80;4.00;;;;;;;;;;5017192;28;20075;-68
2021/05/11 04:52:14;;;;;;;12.00;4.60;;;;;;;;;;5011700;28;20522;-68
2021/05/11 04:54:40;;;;;;;15.30;5.30;;;;;;;;;;5024068;28;20052;-68
2021/05/11 04:57:07;;;;;;;13.85;4.97;;;;;;;;;;5024030;28;20369;-68
2021/05/11 04:59:33;;;;;;;20.52;6.30;;;;;;;;;;5024072;28;20045;-68
2021/05/11 05:02:01;;;;;;;11.00;4.97;;;;;;;;;;5009407;28;20049;-68
2021/05/11 05:04:29;;;;;;;14.20;5.72;;;;;;;;;;5026028;28;20128;-68
2021/05/11 05:06:55;;;;;;;11.85;5.78;;;;;;;;;;5023367;28;20045;-67
2021/05/11 05:09:21;;;;;;;13.68;5.38;;;;;;;;;;5022948;28;20047;-68
2021/05/11 05:11:48;;;;;;;15.00;5.70;;;;;;;;;;5015361;28;20051;-68
2021/05/11 05:14:14;;;;;;;12.90;5.75;;;;;;;;;;4999311;28;20174;-68
2021/05/11 05:16:45;;;;;;;16.13;6.13;;;;;;;;;;5000424;28;20053;-68
2021/05/11 05:19:12;;;;;;;14.95;6.00;;;;;;;;;;5010413;28;20500;-68
2021/05/11 05:21:39;;;;;;;16.77;6.65;;;;;;;;;;5025480;28;20052;-68
2021/05/11 05:24:12;;;;;;;19.58;6.82;;;;;;;;;;5026550;28;20041;-68
2021/05/11 05:26:39;;;;;;;20.13;7.68;;;;;;;;;;5023842;28;20049;-68
2021/05/11 05:29:09;;;;;;;11.52;6.47;;;;;;;;;;5027709;28;20063;-68
2021/05/11 05:31:35;;;;;;;16.77;7.45;;;;;;;;;;5026708;28;20116;-68
2021/05/11 05:34:02;;;;;;;12.77;6.80;;;;;;;;;;5028804;28;20576;-68
2021/05/11 05:36:30;;;;;;;19.73;7.38;;;;;;;;;;5023826;28;20038;-68
2021/05/11 05:38:56;;;;;;;16.63;7.72;;;;;;;;;;5028107;28;20048;-69
2021/05/11 05:41:24;;;;;;;12.38;7.25;;;;;;;;;;5022832;28;20123;-69
2021/05/11 05:43:51;;;;;;;12.50;7.40;;;;;;;;;;5027367;28;20176;-69
2021/05/11 05:46:17;;;;;;;16.88;6.78;;;;;;;;;;5028082;28;20083;-68
2021/05/11 05:48:47;;;;;;;16.63;6.55;;;;;;;;;;5006250;28;20058;-68
2021/05/11 05:51:19;;;;;;;14.35;7.13;;;;;;;;;;5022065;28;20149;-69
2021/05/11 05:53:48;;;;;;;20.15;8.05;;;;;;;;;;5023484;28;20041;-69
2021/05/11 05:56:15;;;;;;;18.67;7.65;;;;;;;;;;5022523;28;20075;-69
2021/05/11 05:58:43;;;;;;;17.23;7.68;;;;;;;;;;5024546;28;20515;-69
2021/05/11 06:01:10;;;;;;;18.10;8.32;;;;;;;;;;5024328;28;20049;-68
2021/05/11 06:03:51;;;;;;;27.13;10.00;;;;;;;;;;5025025;28;20049;-68
2021/05/11 06:06:37;;;;;;;19.50;9.43;;;;;;;;;;5004902;28;20086;-69
2021/05/11 06:09:13;;;;;;;16.80;9.80;;;;;;;;;;5023599;28;20041;-68
2021/05/11 06:14:18;;;;;;;26.48;10.80;;;;;;;;;;5021374;28;19983;-69
2021/05/11 06:19:30;;;;;;;22.33;11.80;;;;;;;;;;5024952;28;20052;-69
2021/05/11 06:21:57;;;;;;;21.23;11.70;;;;;;;;;;5032058;28;20045;-69
2021/05/11 06:24:23;;;;;;;23.77;12.52;;;;;;;;;;5027398;28;20103;-69
2021/05/11 06:26:51;;;;;;;19.60;11.55;;;;;;;;;;5031717;28;20473;-68
2021/05/11 06:29:19;;;;;;;21.80;12.80;;;;;;;;;;5027221;28;20045;-69
2021/05/11 06:31:45;;;;;;;21.60;12.80;;;;;;;;;;5029554;28;20112;-69
2021/05/11 06:34:12;;;;;;;27.60;13.88;;;;;;;;;;5027299;28;20342;-69
2021/05/11 06:36:38;;;;;;;26.98;13.73;;;;;;;;;;5026049;28;20120;-69
2021/05/11 06:39:08;;;;;;;28.80;13.98;;;;;;;;;;5027550;28;20152;-69
2021/05/11 06:41:37;;;;;;;20.95;14.13;;;;;;;;;;5023037;28;20076;-68
2021/05/11 06:44:08;;;;;;;24.35;15.00;;;;;;;;;;5026902;28;20784;-69
2021/05/11 06:47:23;;;;;;;27.58;16.33;;;;;;;;;;5024887;28;20049;-68
2021/05/11 06:49:47;;;;;;;31.50;16.02;;;;;;;;;;5007111;28;20107;-68
2021/05/11 06:52:53;;;;;;;25.63;14.63;;;;;;;;;;5018556;28;20406;-69
2021/05/11 06:55:08;;;;;;;28.20;16.15;;;;;;;;;;5016996;28;20041;-69
2021/05/11 06:57:34;;;;;;;25.98;16.40;;;;;;;;;;5030305;28;20049;-69
2021/05/11 07:00:01;;;;;;;23.90;16.05;;;;;;;;;;5031229;28;20724;-69
2021/05/11 07:02:29;;;;;;;27.75;16.88;;;;;;;;;;5029539;28;20042;-69
2021/05/11 07:04:55;;;;;;;22.02;15.50;;;;;;;;;;5030526;28;20045;-69
2021/05/11 07:07:22;;;;;;;24.52;15.30;;;;;;;;;;5027168;28;20049;-69
2021/05/11 07:10:01;;;;;;;26.55;16.25;;;;;;;;;;5031422;28;20085;-69
2021/05/11 07:15:13;;;;;;;28.50;16.83;;;;;;;;;;5024449;28;20088;-69
2021/05/11 07:17:39;;;;;;;23.45;16.33;;;;;;;;;;5026998;28;20077;-69
2021/05/11 07:20:05;;;;;;;22.52;16.20;;;;;;;;;;5030829;28;20121;-70
2021/05/11 07:22:32;;;;;;;23.85;16.25;;;;;;;;;;5030027;28;20061;-70
2021/05/11 07:24:59;;;;;;;26.50;16.38;;;;;;;;;;5030636;28;20045;-70
2021/05/11 07:27:45;;;;;;;27.05;16.08;;;;;;;;;;5030936;28;20045;-70
2021/05/11 07:30:14;;;;;;;22.77;15.65;;;;;;;;;;5030951;28;20048;-69
2021/05/11 07:32:41;;;;;;;18.73;14.13;;;;;;;;;;5030065;28;20519;-69
2021/05/11 07:35:08;;;;;;;20.38;15.25;;;;;;;;;;5028587;28;20060;-69
2021/05/11 07:37:35;;;;;;;18.60;14.23;;;;;;;;;;5030688;28;20148;-69
2021/05/11 07:40:01;;;;;;;18.65;13.15;;;;;;;;;;5027743;28;20071;-69
2021/05/11 07:42:30;;;;;;;16.85;13.27;;;;;;;;;;5030396;28;20060;-69
2021/05/11 07:45:01;;;;;;;17.98;14.52;;;;;;;;;;5028606;28;20266;-69
2021/05/11 07:47:39;;;;;;;21.02;14.82;;;;;;;;;;5028809;28;20071;-69
2021/05/11 07:50:28;;;;;;;20.15;15.25;;;;;;;;;;5002001;28;20046;-69
2021/05/11 08:04:21;;;;;;;13.38;10.85;;;;;;;;;;5024587;28;20442;-69
2021/05/11 08:15:12;;;;;;;13.18;9.98;;;;;;;;;;5023610;28;20038;-69
2021/05/11 08:17:42;;;;;;;13.60;8.90;;;;;;;;;;5008926;28;20062;-69
2021/05/11 08:28:07;;;;;;;11.63;8.02;;;;;;;;;;5026010;28;20430;-69
2021/05/11 08:30:34;;;;;;;11.20;7.68;;;;;;;;;;5029535;28;20112;-69
2021/05/11 08:33:00;;;;;;;12.07;6.30;;;;;;;;;;5024711;28;20054;-69
2021/05/11 08:35:27;;;;;;;7.80;6.03;;;;;;;;;;5029858;28;20069;-70
2021/05/11 08:37:53;;;;;;;9.18;5.88;;;;;;;;;;5028208;28;20128;-70
2021/05/11 08:40:20;;;;;;;9.32;6.32;;;;;;;;;;5027442;28;20513;-69
2021/05/11 08:42:47;;;;;;;8.05;5.90;;;;;;;;;;5029506;28;20469;-69
2021/05/11 08:45:15;;;;;;;7.28;4.72;;;;;;;;;;5024386;28;20475;-69
2021/05/11 08:47:49;;;;;;;7.28;4.50;;;;;;;;;;5027508;28;20064;-82
2021/05/11 08:50:23;;;;;;;8.35;5.28;;;;;;;;;;5002983;28;20052;-70
2021/05/11 09:09:26;;;;;;;5.63;3.42;;;;;;;;;;5024354;28;20144;-70
2021/05/11 09:25:27;;;;;;;4.85;2.70;;;;;;;;;;5029379;28;20477;-70
2021/05/11 09:28:02;;;;;;;4.10;2.20;;;;;;;;;;5015992;28;20069;-70
2021/05/11 09:31:01;;;;;;;6.20;2.40;;;;;;;;;;5009117;28;20134;-70
2021/05/11 09:33:37;;;;;;;4.97;2.78;;;;;;;;;;5016570;28;20441;-70
2021/05/11 09:55:42;;;;;;;4.97;2.60;;;;;;;;;;5027306;28;20527;-70
2021/05/11 09:58:37;;;;;;;6.15;2.58;;;;;;;;;;5024156;28;20045;-70
2021/05/11 10:10:15;;;;;;;4.47;1.88;;;;;;;;;;5025710;28;20171;-70
2021/05/11 10:13:53;;;;;;;5.43;1.98;;;;;;;;;;5015008;28;20482;-70
2021/05/11 10:27:21;;;;;;;4.07;1.75;;;;;;;;;;5021683;28;20092;-70
2021/05/11 10:39:03;;;;;;;4.65;1.60;;;;;;;;;;5022407;28;20510;-70
2021/05/11 10:41:43;;;;;;;3.85;1.77;;;;;;;;;;5026452;28;20045;-70
2021/05/11 10:46:55;;;;;;;5.93;1.90;;;;;;;;;;5025911;28;20082;-70
2021/05/11 10:49:25;;;;;;;4.50;2.03;;;;;;;;;;5027485;28;20041;-70
2021/05/11 10:52:04;;;;;;;4.68;1.80;;;;;;;;;;5001140;28;20065;-70
2021/05/11 10:54:35;;;;;;;5.43;1.98;;;;;;;;;;5000672;28;20045;-70
2021/05/11 10:57:04;;;;;;;3.85;1.90;;;;;;;;;;5016586;28;20037;-70
2021/05/11 10:59:50;;;;;;;6.45;2.08;;;;;;;;;;5026389;28;20485;-70
2021/05/11 11:02:36;;;;;;;4.75;1.95;;;;;;;;;;5006942;28;20100;-70
2021/05/11 11:05:04;;;;;;;4.35;1.92;;;;;;;;;;5025416;28;20441;-70
2021/05/11 11:07:32;;;;;;;3.85;1.98;;;;;;;;;;5028673;28;20048;-70
2021/05/11 11:10:00;;;;;;;3.55;1.80;;;;;;;;;;5030909;28;20113;-70
2021/05/11 11:12:34;;;;;;;4.70;2.28;;;;;;;;;;5030570;28;20045;-71
2021/05/11 11:15:02;;;;;;;3.78;1.45;;;;;;;;;;5030124;28;20508;-70
2021/05/11 11:17:28;;;;;;;4.07;1.77;;;;;;;;;;5024505;28;20124;-71
2021/05/11 11:19:59;;;;;;;3.28;1.33;;;;;;;;;;5031059;28;20095;-70
2021/05/11 11:25:17;;;;;;;5.63;1.45;;;;;;;;;;5031179;28;20077;-70
2021/05/11 11:27:48;;;;;;;4.13;1.60;;;;;;;;;;5028304;28;20132;-70
2021/05/11 11:30:14;;;;;;;2.60;1.08;;;;;;;;;;5029674;28;20393;-70
2021/05/11 11:32:40;;;;;;;2.65;0.90;;;;;;;;;;5028856;28;20085;-70
2021/05/11 11:35:08;;;;;;;2.92;1.10;;;;;;;;;;5029065;28;20072;-70
2021/05/11 11:37:35;;;;;;;2.45;1.08;;;;;;;;;;5031399;28;20033;-70
2021/05/11 11:40:04;;;;;;;2.05;1.05;;;;;;;;;;5027563;28;20207;-70
2021/05/11 11:42:33;;;;;;;2.83;1.00;;;;;;;;;;5030743;28;20049;-70
2021/05/11 11:45:01;;;;;;;3.28;1.15;;;;;;;;;;5029290;28;20042;-70
2021/05/11 11:47:28;;;;;;;6.38;1.50;;;;;;;;;;5025515;28;20041;-87
2021/05/11 11:49:58;;;;;;;5.80;2.20;;;;;;;;;;5026766;28;20044;-81
2021/05/11 11:52:30;;;;;;;4.90;2.28;;;;;;;;;;5025642;28;20049;-70
2021/05/11 12:00:13;;;;;;;4.65;1.88;;;;;;;;;;5029124;28;20099;-70
2021/05/11 12:02:39;;;;;;;5.43;2.20;;;;;;;;;;5027006;28;20121;-70
2021/05/11 12:05:12;;;;;;;4.53;1.58;;;;;;;;;;5029529;28;20029;-70
2021/05/11 12:07:56;;;;;;;3.97;1.38;;;;;;;;;;5010122;28;20060;-70
2021/05/11 12:10:22;;;;;;;6.90;1.60;;;;;;;;;;5025630;28;20057;-70
2021/05/11 12:12:48;;;;;;;4.75;1.48;;;;;;;;;;5003727;28;20065;-70
2021/05/11 12:15:20;;;;;;;5.10;1.40;;;;;;;;;;5003443;28;20060;-71
2021/05/11 12:18:02;;;;;;;3.28;1.73;;;;;;;;;;5024823;28;20052;-70
2021/05/11 12:20:28;;;;;;;3.22;1.60;;;;;;;;;;5025084;28;20048;-70
2021/05/11 12:23:02;;;;;;;6.35;2.33;;;;;;;;;;5027195;28;20469;-70
2021/05/11 12:25:28;;;;;;;;;;;;;;;;;;5031567;28;20052;-70
2021/05/11 12:27:56;;;;;;;3.38;1.25;;;;;;;;;;5026479;28;19922;-70
2021/05/11 12:30:35;;;;;;;5.50;1.50;;;;;;;;;;5030349;28;20042;-70
2021/05/11 12:33:02;;;;;;;2.67;1.20;;;;;;;;;;5024970;28;20126;-70
2021/05/11 12:35:29;;;;;;;2.92;1.30;;;;;;;;;;5030504;28;20042;-70
2021/05/11 12:38:00;;;;;;;2.35;1.08;;;;;;;;;;5028513;28;20064;-70
2021/05/11 12:40:41;;;;;;;3.78;1.33;;;;;;;;;;5027955;28;20103;-70
2021/05/11 12:43:09;;;;;;;3.08;1.10;;;;;;;;;;5027320;28;20489;-70
2021/05/11 12:45:49;;;;;;;3.10;1.10;;;;;;;;;;5029807;28;20069;-70
2021/05/11 12:48:15;;;;;;;2.95;1.20;;;;;;;;;;5009426;28;20457;-70
2021/05/11 12:50:43;;;;;;;3.67;1.50;;;;;;;;;;5013614;28;20120;-70
2021/05/11 12:53:34;;;;;;;5.05;1.50;;;;;;;;;;5005031;28;20053;-70
2021/05/11 12:56:06;;;;;;;4.93;1.48;;;;;;;;;;5024806;28;20080;-70
2021/05/11 12:59:00;;;;;;;2.75;1.20;;;;;;;;;;5028648;28;20041;-70
2021/05/11 13:01:30;;;;;;;2.60;1.40;;;;;;;;;;5026230;28;20103;-70
2021/05/11 13:04:19;;;;;;;5.28;1.83;;;;;;;;;;5027230;28;20054;-70
2021/05/11 13:13:39;;;;;;;4.95;1.50;;;;;;;;;;5025806;28;20103;-70
2021/05/11 13:20:34;;;;;;;3.42;1.73;;;;;;;;;;5001094;28;20060;-70
2021/05/11 13:23:21;;;;;;;2.80;1.33;;;;;;;;;;5001362;28;20046;-69
2021/05/11 13:25:53;;;;;;;3.42;1.60;;;;;;;;;;4999740;28;20045;-70
2021/05/11 13:28:30;;;;;;;3.15;1.40;;;;;;;;;;5001457;28;20056;-70
2021/05/11 13:31:01;;;;;;;3.95;1.25;;;;;;;;;;5001658;28;20152;-70
2021/05/11 13:33:42;;;;;;;2.15;1.08;;;;;;;;;;5024875;28;20060;-70
2021/05/11 13:36:08;;;;;;;2.92;1.17;;;;;;;;;;5029093;28;20068;-70
2021/05/11 13:38:34;;;;;;;2.38;1.10;;;;;;;;;;5027410;28;20183;-70
2021/05/11 13:41:01;;;;;;;2.95;1.13;;;;;;;;;;5028004;28;20160;-70
2021/05/11 13:43:27;;;;;;;3.95;1.00;;;;;;;;;;5025313;28;20045;-70
2021/05/11 13:45:54;;;;;;;3.10;0.80;;;;;;;;;;5028134;28;20504;-70
2021/05/11 13:50:56;;;;;;;2.63;1.10;;;;;;;;;;5009908;28;20046;-70
2021/05/11 13:53:26;;;;;;;2.70;1.20;;;;;;;;;;4999314;28;20045;-70
2021/05/11 13:56:16;;;;;;;2.92;1.38;;;;;;;;;;4998581;28;20101;-71
2021/05/11 14:04:15;;;;;;;3.40;1.27;;;;;;;;;;5021019;28;20051;-69
2021/05/11 14:06:41;;;;;;;4.10;1.30;;;;;;;;;;5022789;28;20397;-69
2021/05/11 14:09:08;;;;;;;3.10;1.40;;;;;;;;;;5024301;28;20553;-69
2021/05/11 14:11:35;;;;;;;2.88;1.30;;;;;;;;;;5021328;28;20069;-69
2021/05/11 14:14:03;;;;;;;2.28;1.27;;;;;;;;;;5018846;28;20528;-69
2021/05/11 14:16:29;;;;;;;4.45;1.42;;;;;;;;;;5020611;28;20073;-69
2021/05/11 14:18:56;;;;;;;2.15;1.00;;;;;;;;;;5019730;28;20148;-69
2021/05/11 14:21:23;;;;;;;3.63;1.38;;;;;;;;;;5016942;28;20045;-69
2021/05/11 14:23:52;;;;;;;2.95;1.10;;;;;;;;;;5024829;28;20036;-69
2021/05/11 14:26:19;;;;;;;4.47;1.10;;;;;;;;;;5022627;28;20060;-69
2021/05/11 14:28:45;;;;;;;2.40;1.00;;;;;;;;;;5001003;28;20389;-70
2021/05/11 14:31:12;;;;;;;2.42;1.17;;;;;;;;;;5020480;28;20045;-69
2021/05/11 14:33:38;;;;;;;3.65;1.27;;;;;;;;;;5002087;28;20045;-69
2021/05/11 14:36:07;;;;;;;3.10;0.90;;;;;;;;;;5025343;28;20096;-69
2021/05/11 14:38:34;;;;;;;2.72;1.10;;;;;;;;;;5022890;28;20131;-69
2021/05/11 14:41:03;;;;;;;2.40;1.15;;;;;;;;;;5024938;28;20072;-68
2021/05/11 14:43:30;;;;;;;3.35;1.30;;;;;;;;;;5010099;28;20057;-69
2021/05/11 14:45:58;;;;;;;2.78;1.10;;;;;;;;;;5031183;28;20037;-69
2021/05/11 14:48:25;;;;;;;4.82;1.70;;;;;;;;;;5028562;28;20042;-69
2021/05/11 14:50:52;;;;;;;3.05;1.55;;;;;;;;;;5025369;28;20090;-69
2021/05/11 14:53:18;;;;;;;4.07;1.73;;;;;;;;;;5002298;28;20560;-70
2021/05/11 14:55:44;;;;;;;3.28;1.58;;;;;;;;;;5005082;28;20057;-69
2021/05/11 14:58:11;;;;;;;2.90;1.55;;;;;;;;;;5005118;28;20131;-69
2021/05/11 15:00:37;;;;;;;3.83;1.58;;;;;;;;;;5009345;28;20515;-70
2021/05/11 15:03:03;;;;;;;6.82;1.85;;;;;;;;;;5031001;28;20116;-70
2021/05/11 15:05:30;;;;;;;4.40;1.70;;;;;;;;;;5029794;28;20496;-70
2021/05/11 15:07:56;;;;;;;5.22;1.90;;;;;;;;;;5032208;28;20049;-70
2021/05/11 15:10:22;;;;;;;3.38;1.48;;;;;;;;;;5030225;28;20127;-70
2021/05/11 15:12:50;;;;;;;6.97;2.55;;;;;;;;;;5029877;28;20050;-70
2021/05/11 15:15:20;;;;;;;3.20;1.98;;;;;;;;;;5026951;28;20182;-70
2021/05/11 15:20:13;;;;;;;3.60;1.77;;;;;;;;;;5023557;28;20405;-70
2021/05/11 15:22:40;;;;;;;3.58;1.90;;;;;;;;;;4986807;28;20139;-69
2021/05/11 15:25:06;;;;;;;4.20;1.92;;;;;;;;;;5003743;28;20106;-69
2021/05/11 15:27:35;;;;;;;6.45;2.40;;;;;;;;;;5002481;28;20659;-69
2021/05/11 15:30:01;;;;;;;6.88;3.03;;;;;;;;;;5002371;28;20048;-69
2021/05/11 15:32:42;;;;;;;8.05;3.17;;;;;;;;;;5003440;28;20090;-69
2021/05/11 15:35:10;;;;;;;7.65;2.85;;;;;;;;;;5004447;28;20034;-69
2021/05/11 15:37:36;;;;;;;5.65;2.78;;;;;;;;;;5003659;28;20129;-69
2021/05/11 15:40:05;;;;;;;3.70;1.95;;;;;;;;;;5003243;28;20038;-69
2021/05/11 15:42:32;;;;;;;3.88;2.00;;;;;;;;;;5005227;28;20160;-70
2021/05/11 15:44:58;;;;;;;3.03;1.85;;;;;;;;;;5005093;28;20321;-69
2021/05/11 15:47:24;;;;;;;3.55;1.70;;;;;;;;;;4999670;28;20205;-69
2021/05/11 15:49:51;;;;;;;5.13;1.70;;;;;;;;;;5004967;28;20041;-70
2021/05/11 15:52:18;;;;;;;3.00;1.10;;;;;;;;;;5000225;28;20053;-69
2021/05/11 15:54:44;;;;;;;1.63;0.82;;;;;;;;;;5003811;28;20200;-68
2021/05/11 15:57:10;;;;;;;1.63;0.65;;;;;;;;;;5004243;28;20132;-68
2021/05/11 15:59:37;;;;;;;1.30;0.50;;;;;;;;;;5003046;28;20048;-68
2021/05/11 16:02:03;;;;;;;2.20;0.68;;;;;;;;;;5002860;28;20104;-69
2021/05/11 16:04:29;;;;;;;0.88;0.60;;;;;;;;;;5006941;28;20111;-68
2021/05/11 16:06:56;;;;;;;2.53;0.88;;;;;;;;;;5003098;28;20179;-68
2021/05/11 16:09:23;;;;;;;1.88;0.85;;;;;;;;;;5003624;28;20053;-69
2021/05/11 16:11:49;;;;;;;3.45;1.17;;;;;;;;;;5004680;28;20131;-69
2021/05/11 16:14:16;;;;;;;3.58;1.00;;;;;;;;;;5003974;28;20602;-69
2021/05/11 16:16:42;;;;;;;4.18;1.10;;;;;;;;;;5004419;28;20075;-67
2021/05/11 16:19:09;;;;;;;3.88;1.23;;;;;;;;;;5002635;28;20053;-69
2021/05/11 16:21:35;;;;;;;3.25;1.10;;;;;;;;;;5001623;28;20057;-69
2021/05/11 16:24:02;;;;;;;2.28;1.00;;;;;;;;;;5003430;28;20402;-68
2021/05/11 16:26:29;;;;;;;4.88;1.13;;;;;;;;;;4998536;28;20049;-68
2021/05/11 16:28:55;;;;;;;4.45;1.25;;;;;;;;;;5001682;28;20045;-68
2021/05/11 16:31:22;;;;;;;4.43;1.17;;;;;;;;;;5017405;28;20156;-68
2021/05/11 16:33:48;;;;;;;3.33;1.10;;;;;;;;;;5012425;28;20165;-68
2021/05/11 16:36:15;;;;;;;2.13;0.90;;;;;;;;;;5025735;28;20049;-68
2021/05/11 16:38:42;;;;;;;2.70;0.90;;;;;;;;;;5030036;28;20136;-68
2021/05/11 16:41:09;;;;;;;3.33;0.80;;;;;;;;;;4992455;28;20042;-69
2021/05/11 16:43:35;;;;;;;2.17;0.90;;;;;;;;;;5026802;28;20045;-69
2021/05/11 16:46:03;;;;;;;2.35;0.90;;;;;;;;;;5031376;28;20112;-68
2021/05/11 16:48:31;;;;;;;3.38;1.27;;;;;;;;;;5021543;28;20072;-68
2021/05/11 16:50:57;;;;;;;3.90;0.88;;;;;;;;;;5025642;28;20717;-68
2021/05/11 16:53:24;;;;;;;2.50;1.10;;;;;;;;;;5024250;28;20385;-68
2021/05/11 16:55:51;;;;;;;2.65;1.00;;;;;;;;;;5024595;28;20091;-68
2021/05/11 16:58:17;;;;;;;4.85;1.10;;;;;;;;;;5023682;28;20441;-68
2021/05/11 17:00:44;;;;;;;3.42;1.08;;;;;;;;;;5022966;28;20099;-69
2021/05/11 17:03:10;;;;;;;5.28;1.25;;;;;;;;;;5020271;28;20420;-68
2021/05/11 17:05:37;;;;;;;2.85;1.20;;;;;;;;;;5019035;28;20046;-68
2021/05/11 17:08:04;;;;;;;3.85;1.00;;;;;;;;;;5025353;28;20068;-68
2021/05/11 17:10:32;;;;;;;3.28;1.20;;;;;;;;;;5022063;28;20042;-68
2021/05/11 17:13:00;;;;;;;5.03;1.30;;;;;;;;;;5004028;28;20053;-68
2021/05/11 17:15:27;;;;;;;2.97;1.30;;;;;;;;;;5002240;28;20172;-68
2021/05/11 17:17:53;;;;;;;2.38;1.13;;;;;;;;;;5001525;28;20054;-68
2021/05/11 17:20:21;;;;;;;2.20;0.90;;;;;;;;;;5002640;28;20061;-68
2021/05/11 17:22:49;;;;;;;3.17;0.90;;;;;;;;;;5003217;28;20183;-69
2021/05/11 17:25:16;;;;;;;2.83;1.00;;;;;;;;;;4998219;28;20104;-68
2021/05/11 17:27:43;;;;;;;5.13;1.33;;;;;;;;;;4999824;28;20076;-68
2021/05/11 17:30:10;;;;;;;3.25;1.08;;;;;;;;;;5000261;28;20868;-68
2021/05/11 17:32:37;;;;;;;2.83;1.02;;;;;;;;;;4999908;28;20092;-69
2021/05/11 17:35:04;;;;;;;3.60;1.20;;;;;;;;;;5025307;28;20044;-76
2021/05/11 17:37:31;;;;;;;3.42;1.60;;;;;;;;;;5025968;28;20142;-68
2021/05/11 17:39:57;;;;;;;4.50;1.13;;;;;;;;;;5023650;28;20053;-68
2021/05/11 17:42:24;;;;;;;3.22;1.30;;;;;;;;;;5028264;28;20140;-68
2021/05/11 17:44:50;;;;;;;3.05;1.23;;;;;;;;;;5025817;28;20086;-68
2021/05/11 17:47:17;;;;;;;5.05;1.73;;;;;;;;;;5022830;28;20107;-69
2021/05/11 17:49:43;;;;;;;4.53;1.30;;;;;;;;;;5029324;28;20033;-68
2021/05/11 17:52:10;;;;;;;5.28;1.63;;;;;;;;;;5024652;28;20473;-68
2021/05/11 17:54:37;;;;;;;5.15;1.50;;;;;;;;;;5028657;28;20080;-68
2021/05/11 17:57:03;;;;;;;7.90;1.70;;;;;;;;;;5021150;28;20221;-68
2021/05/11 17:59:29;;;;;;;5.07;1.73;;;;;;;;;;5027761;28;20044;-68
2021/05/11 18:01:56;;;;;;;5.22;1.65;;;;;;;;;;5024936;28;20049;-69
2021/05/11 18:04:22;;;;;;;7.18;1.85;;;;;;;;;;5006852;28;20037;-68
2021/05/11 18:06:48;;;;;;;4.78;1.98;;;;;;;;;;5028855;28;20049;-69
2021/05/11 18:09:15;;;;;;;4.10;1.50;;;;;;;;;;5025513;28;20057;-68